Time;durP1;ratioP1;P1;durP2;ratioP2;P2;SDS_P1;SDS_P2;PMS_P1;PMS_P2;Temp;Humidity;BMP_temperature;BMP_pressure;BME280_temperature;BME280_humidity;BME280_pressure;Samples;Min_cycle;Max_cycle;Signal;HPM_P1;HPM_P2
2023/09/14 00:01:15;;;;;;;15.10;9.90;;;;;;;17.34;55.03;99269.28;107711;1254;67673;-42
2023/09/14 00:03:42;;;;;;;15.30;9.70;;;;;;;17.31;55.01;99267.98;107732;1253;72448;-42
2023/09/14 00:06:09;;;;;;;15.50;9.40;;;;;;;17.30;54.96;99266.97;107663;1255;60309;-42
2023/09/14 00:08:36;;;;;;;16.90;9.20;;;;;;;17.28;54.85;99263.86;107656;1253;60335;-42
2023/09/14 00:11:03;;;;;;;17.20;10.00;;;;;;;17.26;54.89;99265.21;107669;1254;74138;-42
2023/09/14 00:13:30;;;;;;;15.90;9.40;;;;;;;17.25;54.96;99261.07;107707;1254;67726;-42
2023/09/14 00:15:57;;;;;;;16.60;9.10;;;;;;;17.24;54.95;99260.13;107715;1254;71381;-42
2023/09/14 00:18:25;;;;;;;15.60;9.70;;;;;;;17.23;54.94;99261.02;107731;1252;60209;-42
2023/09/14 00:20:53;;;;;;;15.90;10.20;;;;;;;17.21;55.28;99262.52;107700;1252;60396;-42
2023/09/14 00:23:21;;;;;;;14.50;9.50;;;;;;;17.19;55.16;99261.60;107717;1254;72562;-42
2023/09/14 00:25:48;;;;;;;17.60;9.70;;;;;;;17.19;55.24;99260.27;107719;1254;68126;-42
2023/09/14 00:28:15;;;;;;;14.50;9.40;;;;;;;17.17;55.27;99253.64;107715;1253;71037;-42
2023/09/14 00:30:42;;;;;;;16.70;10.10;;;;;;;17.16;55.35;99247.93;107607;1257;60551;-42
2023/09/14 00:33:09;;;;;;;16.20;10.20;;;;;;;17.12;55.79;99249.08;107676;1254;60305;-42
2023/09/14 00:35:36;;;;;;;17.00;9.30;;;;;;;17.10;55.70;99249.39;107742;1254;73747;-42
2023/09/14 00:38:03;;;;;;;13.50;9.60;;;;;;;17.08;55.66;99242.77;107677;1254;67863;-42
2023/09/14 00:40:31;;;;;;;15.70;9.90;;;;;;;17.06;55.90;99244.97;107588;1254;73144;-42
2023/09/14 00:42:57;;;;;;;14.90;9.60;;;;;;;17.05;56.11;99243.49;107681;1253;61022;-42
2023/09/14 00:45:24;;;;;;;15.20;9.10;;;;;;;17.03;56.11;99249.30;107635;1255;60080;-42
2023/09/14 00:47:52;;;;;;;14.70;10.00;;;;;;;17.01;56.19;99248.70;107697;1254;74461;-42
2023/09/14 00:50:20;;;;;;;13.60;9.50;;;;;;;16.99;56.57;99246.38;107696;1254;66318;-42
2023/09/14 00:53:08;;;;;;;18.60;9.90;;;;;;;16.96;56.67;99240.14;107703;1254;72384;-42
2023/09/14 00:55:35;;;;;;;16.20;9.70;;;;;;;16.93;56.74;99240.93;107703;1254;60456;-42
2023/09/14 00:58:02;;;;;;;12.60;9.30;;;;;;;16.92;56.77;99240.95;107707;1254;60460;-41
2023/09/14 01:00:30;;;;;;;14.50;9.90;;;;;;;16.91;56.59;99235.17;107716;1254;72863;-42
2023/09/14 01:03:00;;;;;;;15.40;10.30;;;;;;;16.90;56.46;99231.19;107578;1253;67649;-41
2023/09/14 01:05:30;;;;;;;16.20;10.00;;;;;;;16.88;56.45;99229.88;107735;1256;72681;-43
2023/09/14 01:07:57;;;;;;;14.00;10.00;;;;;;;16.86;56.44;99230.12;107716;1256;60562;-43
2023/09/14 01:10:24;;;;;;;17.60;9.50;;;;;;;16.85;56.54;99232.16;107627;1252;60494;-43
2023/09/14 01:12:51;;;;;;;15.30;10.00;;;;;;;16.85;56.50;99230.05;107705;1258;74128;-43
2023/09/14 01:15:19;;;;;;;16.80;10.20;;;;;;;16.85;56.64;99225.36;107734;1254;67976;-43
2023/09/14 01:17:58;;;;;;;13.40;9.30;;;;;;;16.88;56.52;99222.61;107757;1256;72630;-43
2023/09/14 01:20:41;;;;;;;17.60;10.30;;;;;;;16.90;56.50;99222.73;107728;1254;60143;-44
2023/09/14 01:23:38;;;;;;;13.50;9.80;;;;;;;16.91;56.62;99230.16;107681;1253;60350;-43
2023/09/14 01:26:06;;;;;;;12.80;9.00;;;;;;;16.92;56.56;99229.37;107593;1257;73657;-43
2023/09/14 01:28:33;;;;;;;19.00;9.90;;;;;;;16.93;56.43;99231.55;107679;1254;66598;-43
2023/09/14 01:31:00;;;;;;;14.80;9.60;;;;;;;16.94;56.36;99229.81;107575;1255;73163;-43
2023/09/14 01:33:29;;;;;;;14.50;9.70;;;;;;;16.95;56.52;99239.34;107706;1254;60156;-43
2023/09/14 01:36:11;;;;;;;13.70;9.50;;;;;;;16.96;56.44;99231.84;107529;1254;177878;-43
2023/09/14 01:40:18;;;;;;;16.50;10.40;;;;;;;17.00;56.36;99233.06;104149;1292;601155;-41
2023/09/14 01:42:46;;;;;;;16.50;10.10;;;;;;;16.99;56.45;99228.92;106601;1266;59119;-40
2023/09/14 01:45:14;;;;;;;15.40;10.10;;;;;;;17.00;56.48;99227.88;106614;1267;59161;-42
2023/09/14 01:47:41;;;;;;;15.30;9.90;;;;;;;17.00;56.72;99223.51;106494;1266;71035;-42
2023/09/14 01:50:09;;;;;;;18.70;11.20;;;;;;;17.02;56.78;99223.41;106608;1266;66361;-42
2023/09/14 01:52:36;;;;;;;16.40;9.70;;;;;;;17.03;56.91;99224.35;106595;1267;72677;-42
2023/09/14 01:55:06;;;;;;;15.20;10.40;;;;;;;17.03;56.63;99217.08;106486;1266;181573;-41
2023/09/14 01:57:33;;;;;;;17.40;9.90;;;;;;;17.03;56.66;99214.27;107417;1254;60039;-42
2023/09/14 02:00:01;;;;;;;11.50;9.00;;;;;;;17.04;56.97;99216.14;107336;1254;72229;-42
2023/09/14 02:02:30;;;;;;;15.50;9.80;;;;;;;17.02;57.09;99215.67;107499;1252;66432;-42
2023/09/14 02:04:57;;;;;;;16.20;10.50;;;;;;;17.01;56.88;99212.55;107448;1259;72739;-42
2023/09/14 02:07:25;;;;;;;13.60;9.90;;;;;;;16.99;56.97;99211.95;107390;1254;60090;-42
2023/09/14 02:09:52;;;;;;;15.70;10.20;;;;;;;16.97;56.94;99212.74;107433;1254;59822;-41
2023/09/14 02:12:20;;;;;;;13.80;10.20;;;;;;;16.94;56.94;99213.15;107403;1258;73087;-42
2023/09/14 02:14:48;;;;;;;16.30;10.40;;;;;;;16.92;57.13;99211.85;107496;1259;67894;-42
2023/09/14 02:17:17;;;;;;;12.50;10.40;;;;;;;16.89;57.22;99212.48;107471;1254;71439;-42
2023/09/14 02:19:44;;;;;;;16.10;10.60;;;;;;;16.87;57.44;99214.63;107491;1254;60043;-42
2023/09/14 02:22:12;;;;;;;16.10;10.40;;;;;;;16.85;57.47;99214.09;107507;1253;59783;-42
2023/09/14 02:24:39;;;;;;;15.90;10.00;;;;;;;16.84;57.43;99210.20;107401;1254;73133;-41
2023/09/14 02:27:07;;;;;;;15.50;10.60;;;;;;;16.83;57.47;99207.55;107512;1254;67884;-42
2023/09/14 02:29:35;;;;;;;17.50;10.20;;;;;;;16.81;57.43;99205.91;107404;1257;71440;-42
2023/09/14 02:32:04;;;;;;;14.30;10.10;;;;;;;16.80;57.46;99204.14;107489;1254;59362;-43
2023/09/14 02:34:31;;;;;;;18.00;10.90;;;;;;;16.77;57.54;99202.20;107389;1253;60085;-43
2023/09/14 02:36:59;;;;;;;17.60;10.90;;;;;;;16.74;57.67;99204.58;107503;1253;73096;-43
2023/09/14 02:39:27;;;;;;;15.90;10.00;;;;;;;16.72;57.74;99198.88;107390;1253;67595;-41
2023/09/14 02:41:54;;;;;;;16.40;10.70;;;;;;;16.70;57.95;99204.70;107372;1253;72711;-42
2023/09/14 02:44:22;;;;;;;18.40;10.70;;;;;;;16.67;58.17;99206.75;107517;1254;60076;-42
2023/09/14 02:46:49;;;;;;;14.30;10.70;;;;;;;16.63;58.06;99206.00;107554;1254;60066;-42
2023/09/14 02:49:17;;;;;;;17.80;11.30;;;;;;;16.61;58.10;99206.71;107501;1254;72279;-41
2023/09/14 02:51:44;;;;;;;20.20;11.30;;;;;;;16.59;58.06;99205.79;107545;1254;67905;-41
2023/09/14 02:54:12;;;;;;;14.80;10.00;;;;;;;16.56;58.14;99200.91;107515;1254;72965;-42
2023/09/14 02:56:41;;;;;;;14.30;10.40;;;;;;;16.53;58.10;99196.11;107376;1254;60500;-41
2023/09/14 02:59:09;;;;;;;17.50;10.60;;;;;;;16.51;58.11;99194.25;107484;1255;59356;-42
2023/09/14 03:01:37;;;;;;;18.60;10.80;;;;;;;16.49;58.21;99198.34;107534;1254;71837;-41
2023/09/14 03:04:05;;;;;;;15.80;10.60;;;;;;;16.46;58.53;99203.83;107351;1254;67865;-42
2023/09/14 03:06:34;;;;;;;18.30;10.80;;;;;;;16.43;58.92;99201.50;107489;1254;71436;-42
2023/09/14 03:09:02;;;;;;;15.60;11.10;;;;;;;16.41;58.88;99197.61;107371;1254;60216;-42
2023/09/14 03:11:30;;;;;;;18.30;11.20;;;;;;;16.39;58.65;99197.47;107394;1259;59381;-42
2023/09/14 03:13:57;;;;;;;17.00;11.10;;;;;;;16.38;58.64;99195.84;107381;1254;73098;-42
2023/09/14 03:16:25;;;;;;;18.70;11.20;;;;;;;16.37;58.67;99197.40;107518;1254;66628;-42
2023/09/14 03:18:53;;;;;;;15.80;11.10;;;;;;;16.35;58.62;99195.86;107383;1254;72706;-42
2023/09/14 03:21:27;;;;;;;16.10;11.10;;;;;;;16.32;58.64;99197.45;107493;1254;60157;-42
2023/09/14 03:23:56;;;;;;;15.90;10.40;;;;;;;16.29;58.73;99200.12;107406;1254;60770;-41
2023/09/14 03:26:25;;;;;;;18.20;10.80;;;;;;;16.26;58.60;99197.89;107516;1254;71925;-41
2023/09/14 03:28:53;;;;;;;17.80;11.30;;;;;;;16.22;58.81;99197.98;107527;1254;67633;-41
2023/09/14 03:31:21;;;;;;;15.20;11.10;;;;;;;16.18;58.97;99196.84;107515;1254;72439;-41
2023/09/14 03:33:52;;;;;;;16.90;11.10;;;;;;;16.16;58.90;99200.06;107498;1254;60070;-42
2023/09/14 03:36:20;;;;;;;16.50;10.80;;;;;;;16.14;58.86;99203.50;107508;1259;59176;-42
2023/09/14 03:38:47;;;;;;;14.30;11.00;;;;;;;16.12;58.99;99202.64;107528;1254;73047;-41
2023/09/14 03:41:16;;;;;;;14.70;10.80;;;;;;;16.10;58.99;99200.64;107563;1253;66454;-41
2023/09/14 03:43:44;;;;;;;19.80;11.00;;;;;;;16.11;58.89;99202.43;107543;1254;71404;-42
2023/09/14 03:46:13;;;;;;;13.80;11.30;;;;;;;16.08;58.92;99197.90;107507;1254;59639;-41
2023/09/14 03:48:41;;;;;;;17.50;11.20;;;;;;;16.09;59.01;99197.74;107514;1253;60210;-42
2023/09/14 03:51:09;;;;;;;18.70;12.00;;;;;;;16.09;58.95;99198.52;107380;1259;73081;-42
2023/09/14 03:53:36;;;;;;;17.20;11.00;;;;;;;16.09;58.89;99197.67;107502;1254;67553;-41
2023/09/14 03:56:04;;;;;;;17.20;11.30;;;;;;;16.10;58.99;99198.76;107452;1253;71980;-41
2023/09/14 03:58:32;;;;;;;16.60;11.10;;;;;;;16.10;59.13;99195.40;107488;1254;60671;-42
2023/09/14 04:00:59;;;;;;;19.30;11.10;;;;;;;16.11;59.06;99198.75;107486;1254;59584;-42
2023/09/14 04:03:27;;;;;;;18.50;12.10;;;;;;;16.13;58.98;99203.73;107571;1254;73164;-42
2023/09/14 04:05:55;;;;;;;22.20;11.90;;;;;;;16.14;59.04;99202.95;107490;1254;66740;-42
2023/09/14 04:08:24;;;;;;;15.50;11.00;;;;;;;16.17;59.30;99202.56;107480;1254;71409;-41
2023/09/14 04:10:51;;;;;;;16.90;10.50;;;;;;;16.22;59.02;99201.27;107524;1259;61722;-42
2023/09/14 04:13:33;;;;;;;16.30;10.40;;;;;;;16.31;58.99;99202.61;107546;1254;59526;-42
2023/09/14 04:16:08;;;;;;;20.60;11.20;;;;;;;16.37;58.90;99205.84;107508;1254;71820;-41
2023/09/14 04:18:38;;;;;;;17.10;11.30;;;;;;;16.41;58.96;99208.63;107549;1254;66284;-41
2023/09/14 04:21:07;;;;;;;17.10;10.90;;;;;;;16.46;58.87;99210.63;107503;1254;72705;-42
2023/09/14 04:23:35;;;;;;;21.50;10.60;;;;;;;16.51;58.56;99206.37;107361;1257;59692;-41
2023/09/14 04:26:04;;;;;;;14.70;10.60;;;;;;;16.55;58.47;99206.42;107515;1254;59580;-41
2023/09/14 04:28:33;;;;;;;19.70;11.40;;;;;;;16.60;58.46;99207.42;107401;1254;73066;-41
2023/09/14 04:31:02;;;;;;;16.20;10.90;;;;;;;16.62;58.39;99204.77;107499;1258;67734;-42
2023/09/14 04:33:32;;;;;;;16.90;10.80;;;;;;;16.63;58.39;99209.28;107541;1254;71161;-41
2023/09/14 04:36:02;;;;;;;19.20;11.70;;;;;;;16.63;58.52;99212.64;107391;1254;60545;-42
2023/09/14 04:38:30;;;;;;;18.70;11.40;;;;;;;16.65;58.67;99214.44;107505;1254;59542;-41
2023/09/14 04:41:04;;;;;;;15.90;11.00;;;;;;;16.67;58.52;99211.98;107357;1258;73089;-41
2023/09/14 04:43:32;;;;;;;19.20;11.40;;;;;;;16.66;58.49;99209.72;107365;1253;67617;-41
2023/09/14 04:46:01;;;;;;;19.40;11.30;;;;;;;16.66;58.66;99214.95;107541;1254;71425;-42
2023/09/14 04:48:28;;;;;;;17.30;10.60;;;;;;;16.67;58.72;99214.73;107360;1259;60103;-41
2023/09/14 04:50:58;;;;;;;18.60;11.30;;;;;;;16.67;58.96;99217.69;107524;1254;59537;-42
2023/09/14 04:53:26;;;;;;;16.60;11.50;;;;;;;16.68;59.24;99222.30;107516;1254;73092;-41
2023/09/14 04:55:54;;;;;;;16.50;11.30;;;;;;;16.69;59.60;99221.52;107360;1259;67911;-42
2023/09/14 04:58:21;;;;;;;15.70;10.10;;;;;;;16.69;59.87;99220.35;107378;1256;71455;-42
2023/09/14 05:00:53;;;;;;;15.20;10.20;;;;;;;16.73;59.72;99219.83;107361;1254;60835;-41
2023/09/14 05:03:21;;;;;;;20.00;11.20;;;;;;;16.80;59.56;99218.60;107558;1253;59551;-41
2023/09/14 05:05:53;;;;;;;23.40;11.10;;;;;;;16.84;59.42;99220.44;107461;1254;71957;-41
2023/09/14 05:08:21;;;;;;;19.20;10.70;;;;;;;16.87;59.45;99223.32;107509;1254;66319;-41
2023/09/14 05:10:52;;;;;;;16.40;11.10;;;;;;;16.90;59.68;99219.91;107499;1254;71468;-42
2023/09/14 05:13:20;;;;;;;19.60;11.00;;;;;;;16.92;59.71;99220.70;107494;1254;59631;-42
2023/09/14 05:15:50;;;;;;;20.10;11.90;;;;;;;16.94;59.95;99222.86;107512;1254;59412;-42
2023/09/14 05:18:23;;;;;;;16.90;11.10;;;;;;;16.97;60.16;99221.66;107350;1253;71808;-41
2023/09/14 05:20:51;;;;;;;22.70;11.70;;;;;;;16.98;60.36;99221.81;107494;1254;66763;-41
2023/09/14 05:23:18;;;;;;;16.30;11.40;;;;;;;16.98;60.31;99220.25;107531;1254;71440;-42
2023/09/14 05:25:47;;;;;;;17.30;11.30;;;;;;;16.99;60.16;99219.08;107448;1254;59721;-41
2023/09/14 05:28:15;;;;;;;19.90;12.10;;;;;;;17.00;60.51;99218.59;107507;1254;59480;-41
2023/09/14 05:30:43;;;;;;;20.20;11.60;;;;;;;17.01;60.68;99216.30;107316;1254;71532;-41
2023/09/14 05:33:12;;;;;;;18.00;11.50;;;;;;;17.04;60.65;99213.15;107567;1254;66791;-41
2023/09/14 05:35:43;;;;;;;20.40;11.00;;;;;;;17.07;60.73;99209.36;107470;1254;71384;-41
2023/09/14 05:38:12;;;;;;;21.70;12.20;;;;;;;17.15;60.42;99208.89;107340;1254;60356;-41
2023/09/14 05:40:41;;;;;;;24.30;11.10;;;;;;;17.23;60.26;99208.57;107475;1255;59656;-41
2023/09/14 05:43:09;;;;;;;17.10;11.20;;;;;;;17.28;60.39;99207.58;107499;1254;71784;-42
2023/09/14 05:45:36;;;;;;;20.30;11.40;;;;;;;17.33;60.50;99206.59;107494;1254;66627;-41
2023/09/14 05:48:05;;;;;;;16.10;11.80;;;;;;;17.37;60.28;99209.75;107335;1257;72524;-42
2023/09/14 05:50:36;;;;;;;16.90;11.90;;;;;;;17.46;60.11;99213.89;107396;1254;60332;-41
2023/09/14 05:53:05;;;;;;;20.50;12.10;;;;;;;17.54;60.14;99213.73;107549;1254;60537;-42
2023/09/14 05:55:36;;;;;;;22.80;12.20;;;;;;;17.61;59.93;99210.60;107317;1254;72367;-40
2023/09/14 05:58:04;;;;;;;23.30;12.50;;;;;;;17.68;59.68;99209.73;107264;1254;66524;-39
2023/09/14 06:00:33;;;;;;;16.40;11.50;;;;;;;17.76;59.68;99210.58;107482;1259;72742;-39
2023/09/14 06:03:00;;;;;;;22.20;11.90;;;;;;;17.84;59.36;99216.43;107344;1255;60371;-39
2023/09/14 06:05:28;;;;;;;21.30;11.40;;;;;;;17.90;59.09;99217.14;107333;1259;60306;-40
2023/09/14 06:07:56;;;;;;;19.10;11.20;;;;;;;17.95;59.18;99216.91;107446;1259;73701;-40
2023/09/14 06:10:25;;;;;;;18.60;11.40;;;;;;;18.02;59.01;99216.43;107299;1254;66444;-40
2023/09/14 06:12:53;;;;;;;18.50;11.70;;;;;;;18.10;59.12;99216.39;107271;1261;72702;-41
2023/09/14 06:15:21;;;;;;;22.80;12.70;;;;;;;18.19;58.75;99216.41;107461;1254;60392;-41
2023/09/14 06:17:48;;;;;;;18.10;12.00;;;;;;;18.29;58.66;99215.89;107494;1254;60463;-41
2023/09/14 06:20:16;;;;;;;19.80;12.00;;;;;;;18.38;58.56;99214.05;107470;1259;73924;-41
2023/09/14 06:22:44;;;;;;;22.70;12.00;;;;;;;18.48;58.61;99213.65;107437;1254;67876;-41
2023/09/14 06:25:11;;;;;;;20.00;12.60;;;;;;;18.57;58.53;99213.52;107294;1259;72487;-41
2023/09/14 06:27:39;;;;;;;23.20;12.20;;;;;;;18.68;58.28;99207.33;107510;1256;60874;-42
2023/09/14 06:30:08;;;;;;;22.00;11.90;;;;;;;18.78;58.52;99206.44;107449;1258;60622;-41
2023/09/14 06:32:35;;;;;;;18.00;12.00;;;;;;;18.88;58.76;99202.27;107528;1254;73819;-41
2023/09/14 06:35:04;;;;;;;19.70;11.50;;;;;;;19.00;58.63;99204.96;107430;1258;69865;-41
2023/09/14 06:37:32;;;;;;;19.50;11.30;;;;;;;19.16;58.62;99198.23;107475;1259;72683;-41
2023/09/14 06:39:59;;;;;;;18.40;11.30;;;;;;;19.35;58.77;99191.67;107377;1259;60512;-41
2023/09/14 06:42:27;;;;;;;17.90;11.10;;;;;;;19.52;58.89;99190.66;107720;1254;60411;-42
2023/09/14 06:44:55;;;;;;;17.60;10.40;;;;;;;19.68;59.06;99187.27;107612;1257;74325;-41
2023/09/14 06:47:22;;;;;;;16.80;11.00;;;;;;;19.85;59.09;99178.73;107400;1259;67543;-42
2023/09/14 06:49:50;;;;;;;19.30;11.50;;;;;;;20.02;58.62;99186.00;107409;1258;72670;-42
2023/09/14 06:52:17;;;;;;;18.00;11.20;;;;;;;20.16;57.99;99182.76;107483;1254;60506;-41
2023/09/14 06:54:46;;;;;;;17.40;11.10;;;;;;;20.29;57.37;99176.96;107487;1254;60447;-42
2023/09/14 06:57:14;;;;;;;21.40;11.70;;;;;;;20.41;56.99;99172.31;107459;1255;73849;-42
2023/09/14 06:59:41;;;;;;;21.00;12.10;;;;;;;20.51;56.84;99171.66;107445;1259;66340;-42
2023/09/14 07:02:09;;;;;;;19.40;12.40;;;;;;;20.61;56.67;99167.56;107447;1255;71403;-41
2023/09/14 07:04:37;;;;;;;19.90;11.90;;;;;;;20.72;56.62;99168.79;107470;1259;60572;-41
2023/09/14 07:07:04;;;;;;;21.90;11.90;;;;;;;20.83;56.44;99169.28;107591;1254;60322;-41
2023/09/14 07:09:32;;;;;;;20.80;11.70;;;;;;;20.93;56.08;99170.12;107459;1259;73899;-41
2023/09/14 07:12:02;;;;;;;17.20;11.80;;;;;;;21.04;55.95;99174.18;107485;1260;65920;-41
2023/09/14 07:14:30;;;;;;;19.40;11.30;;;;;;;21.13;55.91;99178.98;107485;1258;74813;-42
2023/09/14 07:16:57;;;;;;;19.90;11.50;;;;;;;21.23;55.34;99176.03;107503;1258;60512;-41
2023/09/14 07:19:26;;;;;;;18.60;11.30;;;;;;;21.33;54.91;99181.77;107624;1254;59132;-42
2023/09/14 07:21:57;;;;;;;19.20;10.60;;;;;;;21.42;54.90;99181.59;107483;1258;72363;-42
2023/09/14 07:24:26;;;;;;;18.80;11.80;;;;;;;21.51;54.71;99185.44;107526;1259;67441;-42
2023/09/14 07:26:54;;;;;;;21.20;11.30;;;;;;;21.60;54.27;99182.66;107520;1254;72670;-42
2023/09/14 07:29:22;;;;;;;18.90;11.50;;;;;;;21.71;54.73;99182.26;107491;1260;60093;-41
2023/09/14 07:31:50;;;;;;;20.80;11.40;;;;;;;21.82;54.55;99184.77;107484;1255;60697;-43
2023/09/14 07:34:19;;;;;;;21.90;11.20;;;;;;;21.93;54.31;99187.77;107520;1255;74330;-41
2023/09/14 07:36:46;;;;;;;20.70;12.20;;;;;;;22.06;53.55;99193.78;107523;1254;70345;-42
2023/09/14 07:39:14;;;;;;;17.80;10.50;;;;;;;22.18;53.33;99196.98;107482;1254;72651;-40
2023/09/14 07:41:42;;;;;;;21.70;11.20;;;;;;;22.28;53.24;99197.38;107716;1257;60428;-40
2023/09/14 07:44:09;;;;;;;18.30;10.80;;;;;;;22.39;53.25;99195.90;107494;1254;60480;-40
2023/09/14 07:46:37;;;;;;;19.10;11.90;;;;;;;22.52;52.97;99200.55;107370;1254;73917;-40
2023/09/14 07:49:06;;;;;;;14.00;10.40;;;;;;;22.65;52.24;99198.23;107463;1259;68037;-42
2023/09/14 07:51:34;;;;;;;22.10;11.70;;;;;;;22.75;52.12;99191.30;107345;1254;71203;-42
2023/09/14 07:54:01;;;;;;;17.40;11.20;;;;;;;22.85;51.91;99185.75;107336;1255;60501;-41
2023/09/14 07:56:29;;;;;;;21.00;11.00;;;;;;;22.95;51.53;99179.73;107669;1255;60290;-42
2023/09/14 07:58:56;;;;;;;18.00;10.70;;;;;;;23.04;51.23;99177.83;107487;1254;72686;-42
2023/09/14 08:01:24;;;;;;;16.70;10.80;;;;;;;23.14;51.06;99179.55;107512;1254;69162;-42
2023/09/14 08:03:52;;;;;;;19.30;11.10;;;;;;;23.22;50.88;99176.98;107472;1259;72764;-42
2023/09/14 08:06:21;;;;;;;22.60;11.50;;;;;;;23.32;51.05;99174.32;107640;1254;60459;-42
2023/09/14 08:08:53;;;;;;;21.10;10.90;;;;;;;23.44;51.62;99171.45;107433;1254;60028;-42
2023/09/14 08:11:21;;;;;;;16.30;10.10;;;;;;;23.60;51.68;99166.21;107282;1260;75083;-42
2023/09/14 08:13:49;;;;;;;19.20;10.50;;;;;;;23.74;51.21;99161.38;107504;1260;68047;-42
2023/09/14 08:16:16;;;;;;;19.10;10.00;;;;;;;23.89;50.79;99161.09;107467;1260;72482;-42
2023/09/14 08:18:45;;;;;;;15.40;9.70;;;;;;;24.03;50.53;99164.97;107432;1255;60549;-42
2023/09/14 08:21:12;;;;;;;15.10;9.80;;;;;;;24.17;49.63;99166.73;107540;1254;60540;-42
2023/09/14 08:23:40;;;;;;;15.70;9.60;;;;;;;24.31;49.59;99169.75;107492;1255;73932;-42
2023/09/14 08:26:08;;;;;;;15.10;9.30;;;;;;;24.45;49.30;99169.39;107597;1255;67855;-42
2023/09/14 08:28:35;;;;;;;19.80;10.30;;;;;;;24.59;48.40;99170.41;107471;1254;72775;-42
2023/09/14 08:31:03;;;;;;;19.90;10.10;;;;;;;24.70;47.90;99172.56;107504;1254;60482;-42
2023/09/14 08:33:31;;;;;;;15.40;9.80;;;;;;;24.81;47.69;99169.68;107508;1254;60456;-42
2023/09/14 08:35:59;;;;;;;19.50;9.90;;;;;;;24.93;48.33;99164.52;107563;1254;74100;-42
2023/09/14 08:38:26;;;;;;;13.20;9.50;;;;;;;25.07;47.73;99158.88;107502;1258;68031;-42
2023/09/14 08:40:57;;;;;;;28.90;11.60;;;;;;;25.23;47.92;99159.25;107516;1255;73005;-42
2023/09/14 08:43:25;;;;;;;13.40;9.10;;;;;;;25.39;47.83;99160.39;107480;1255;60434;-42
2023/09/14 08:45:53;;;;;;;15.40;9.60;;;;;;;25.55;46.90;99158.23;107532;1253;60337;-42
2023/09/14 08:48:22;;;;;;;19.30;9.70;;;;;;;25.66;46.88;99157.09;107510;1254;73829;-42
2023/09/14 08:50:49;;;;;;;15.30;9.70;;;;;;;25.80;46.85;99157.14;107549;1254;66312;-42
2023/09/14 08:53:17;;;;;;;76.20;14.70;;;;;;;25.99;46.42;99161.48;107472;1254;71451;-42
2023/09/14 08:55:45;;;;;;;19.10;9.70;;;;;;;26.17;45.67;99163.67;107508;1254;60522;-42
2023/09/14 08:58:15;;;;;;;13.90;9.30;;;;;;;26.31;45.59;99162.27;107513;1258;60443;-42
2023/09/14 09:00:43;;;;;;;17.40;9.20;;;;;;;26.46;45.49;99159.27;107526;1254;73842;-42
2023/09/14 09:03:11;;;;;;;17.40;9.70;;;;;;;26.62;44.59;99161.13;107363;1254;68107;-42
2023/09/14 09:05:38;;;;;;;19.00;9.80;;;;;;;26.73;43.51;99158.73;107359;1254;72733;-42
2023/09/14 09:08:06;;;;;;;19.10;10.40;;;;;;;26.78;43.67;99157.58;107268;1254;60389;-42
2023/09/14 09:10:34;;;;;;;16.60;9.40;;;;;;;26.86;44.15;99157.54;107290;1254;60332;-42
2023/09/14 09:13:03;;;;;;;19.20;10.50;;;;;;;26.98;44.09;99158.27;107393;1254;73911;-42
2023/09/14 09:15:32;;;;;;;17.60;9.70;;;;;;;27.11;43.90;99155.42;107447;1254;67870;-44
2023/09/14 09:18:07;;;;;;;18.20;9.80;;;;;;;27.24;43.15;99157.09;107473;1256;71776;-42
2023/09/14 09:20:37;;;;;;;13.40;8.90;;;;;;;27.35;42.83;99153.45;107388;1257;60451;-41
2023/09/14 09:23:05;;;;;;;17.00;9.20;;;;;;;27.46;42.55;99148.84;107452;1254;60556;-41
2023/09/14 09:25:44;;;;;;;16.20;9.70;;;;;;;27.58;42.87;99146.30;107395;1254;72688;-42
2023/09/14 09:28:11;;;;;;;33.10;13.90;;;;;;;27.75;42.16;99144.05;107644;1257;66418;-42
2023/09/14 09:30:39;;;;;;;41.00;17.00;;;;;;;27.88;42.36;99140.11;107425;1254;71485;-42
2023/09/14 09:33:07;;;;;;;15.90;10.20;;;;;;;27.99;42.89;99136.39;107421;1254;60533;-42
2023/09/14 09:35:35;;;;;;;16.20;10.00;;;;;;;28.13;41.74;99135.39;107455;1254;60562;-42
2023/09/14 09:38:13;;;;;;;17.00;10.30;;;;;;;28.23;41.09;99130.73;107460;1254;72752;-42
2023/09/14 09:40:43;;;;;;;13.90;8.90;;;;;;;28.31;41.99;99128.33;107534;1254;67246;-42
2023/09/14 09:43:15;;;;;;;15.10;9.10;;;;;;;28.43;41.96;99127.79;107538;1259;71933;-42
2023/09/14 09:45:43;;;;;;;15.50;9.50;;;;;;;28.58;41.45;99127.33;107478;1259;60776;-42
2023/09/14 09:48:11;;;;;;;15.50;10.00;;;;;;;28.70;40.96;99132.51;107663;1254;60393;-42
2023/09/14 09:50:39;;;;;;;17.70;10.00;;;;;;;28.80;40.99;99129.61;107369;1255;73925;-42
2023/09/14 09:53:10;;;;;;;14.20;9.40;;;;;;;28.90;40.74;99125.57;107484;1254;67795;-42
2023/09/14 09:55:38;;;;;;;18.50;10.00;;;;;;;29.02;39.65;99124.58;107416;1254;72706;-42
2023/09/14 09:58:07;;;;;;;14.30;9.80;;;;;;;29.09;40.02;99122.47;107149;1255;60309;-42
2023/09/14 10:00:37;;;;;;;16.40;9.60;;;;;;;29.20;39.53;99124.27;107438;1254;60489;-42
2023/09/14 10:03:06;;;;;;;23.40;9.50;;;;;;;29.28;39.36;99127.10;107517;1258;72083;-40
2023/09/14 10:05:38;;;;;;;15.40;9.50;;;;;;;29.36;39.28;99126.55;107640;1254;67222;-43
2023/09/14 10:08:20;;;;;;;18.40;9.70;;;;;;;29.45;39.58;99123.12;107627;1254;71429;-43
2023/09/14 10:10:51;;;;;;;16.00;10.10;;;;;;;29.59;39.24;99118.73;107350;1254;60418;-43
2023/09/14 10:13:23;;;;;;;14.60;9.50;;;;;;;29.75;39.16;99116.93;107474;1253;60544;-43
2023/09/14 10:15:53;;;;;;;14.80;9.80;;;;;;;29.92;39.19;99120.27;107501;1254;73866;-43
2023/09/14 10:18:22;;;;;;;14.60;10.20;;;;;;;30.03;37.65;99120.17;107476;1254;67602;-43
2023/09/14 10:20:53;;;;;;;16.70;10.00;;;;;;;30.09;37.31;99116.20;107499;1259;72850;-42
2023/09/14 10:23:21;;;;;;;13.60;9.40;;;;;;;30.13;37.24;99115.05;107675;1256;60460;-42
2023/09/14 10:25:50;;;;;;;18.90;10.40;;;;;;;30.22;37.35;99112.46;107550;1254;60453;-41
2023/09/14 10:28:22;;;;;;;17.30;10.60;;;;;;;30.41;37.82;99114.96;107530;1254;73888;-42
2023/09/14 10:30:51;;;;;;;17.60;10.00;;;;;;;30.60;36.68;99122.16;107511;1254;67984;-41
2023/09/14 10:33:19;;;;;;;18.20;10.40;;;;;;;30.68;36.53;99121.94;107537;1254;72763;-42
2023/09/14 10:35:47;;;;;;;15.10;9.10;;;;;;;30.74;36.84;99113.55;107614;1254;60575;-42
2023/09/14 10:38:15;;;;;;;14.40;9.70;;;;;;;30.87;38.28;99114.32;107483;1254;60376;-41
2023/09/14 10:40:42;;;;;;;15.60;9.10;;;;;;;31.11;36.76;99113.45;107370;1255;72701;-41
2023/09/14 10:43:11;;;;;;;13.00;9.30;;;;;;;31.34;36.23;99113.48;107328;1255;67613;-42
2023/09/14 10:45:39;;;;;;;13.80;10.00;;;;;;;31.57;36.16;99108.64;107506;1254;72438;-43
2023/09/14 10:48:16;;;;;;;15.40;9.30;;;;;;;31.78;35.65;99105.64;107364;1254;60427;-42
2023/09/14 10:50:44;;;;;;;15.00;9.20;;;;;;;31.96;36.33;99106.24;107519;1254;60389;-42
2023/09/14 10:53:13;;;;;;;13.30;8.80;;;;;;;32.08;33.59;99104.90;107371;1254;74934;-42
2023/09/14 10:55:41;;;;;;;16.80;9.50;;;;;;;32.06;33.20;99102.29;107489;1254;67836;-42
2023/09/14 10:58:15;;;;;;;16.40;9.10;;;;;;;32.06;33.28;99099.64;107529;1254;71457;-42
2023/09/14 11:00:44;;;;;;;13.50;9.10;;;;;;;32.19;33.42;99094.23;107520;1254;61038;-43
2023/09/14 11:03:14;;;;;;;15.10;9.90;;;;;;;32.38;32.64;99096.54;107482;1255;60076;-43
2023/09/14 11:05:51;;;;;;;16.30;9.10;;;;;;;32.46;32.66;99094.62;107360;1254;73877;-40
2023/09/14 11:08:20;;;;;;;14.70;9.50;;;;;;;32.58;33.19;99093.11;107483;1254;67948;-42
2023/09/14 11:10:58;;;;;;;11.30;9.40;;;;;;;32.70;32.68;99090.32;107459;1259;72668;-42
2023/09/14 11:13:30;;;;;;;14.40;9.80;;;;;;;32.74;32.63;99093.52;107516;1254;60114;-41
2023/09/14 11:16:10;;;;;;;12.80;9.50;;;;;;;32.72;32.85;99085.21;107513;1254;60547;-41
2023/09/14 11:18:44;;;;;;;12.40;9.20;;;;;;;32.74;33.47;99083.66;107580;1254;72515;-42
2023/09/14 11:21:33;;;;;;;14.20;9.40;;;;;;;32.90;33.32;99081.59;107443;1254;67727;-42